createdAt,value
2023-04-14T00:00:08.070Z,100659.13
2023-04-14T00:03:22.047Z,100697.63
2023-04-14T00:06:28.202Z,100696.81
2023-04-14T00:09:32.270Z,100712.53
2023-04-14T00:12:37.005Z,100705.50
2023-04-14T00:15:43.157Z,100681.91
2023-04-14T00:18:47.071Z,100689.84
2023-04-14T00:21:51.821Z,100703.00
2023-04-14T00:24:56.110Z,100690.72
2023-04-14T00:28:00.353Z,100717.94
2023-04-14T00:31:04.480Z,100706.50
2023-04-14T00:34:08.622Z,100707.34
2023-04-14T00:37:13.099Z,100731.06
2023-04-14T00:40:17.656Z,100730.19
2023-04-14T00:43:22.179Z,100709.13
2023-04-14T00:46:26.758Z,100729.34
2023-04-14T00:49:31.204Z,100734.59
2023-04-14T00:52:35.658Z,100724.06
2023-04-14T00:55:41.871Z,100738.00
2023-04-14T00:58:46.567Z,100745.97
2023-04-14T01:01:51.251Z,100727.50
2023-04-14T01:04:57.020Z,100734.38
2023-04-14T01:08:02.442Z,100746.69
2023-04-14T01:11:13.607Z,100745.78
2023-04-14T01:14:43.331Z,100749.44
2023-04-14T01:17:58.658Z,100767.06
2023-04-14T01:21:18.781Z,100749.50
2023-04-14T01:24:26.670Z,100760.81
2023-04-14T01:27:52.899Z,100762.59
2023-04-14T01:31:18.356Z,100767.00
2023-04-14T01:34:49.415Z,100760.91
2023-04-14T01:38:04.925Z,100773.19
2023-04-14T01:41:14.233Z,100766.97
2023-04-14T01:44:20.794Z,100769.50
2023-04-14T01:47:27.082Z,100778.25
2023-04-14T01:50:33.747Z,100770.44
2023-04-14T01:53:44.050Z,100760.75
2023-04-14T01:56:49.895Z,100760.78
2023-04-14T01:59:58.602Z,100749.44
2023-04-14T02:03:06.191Z,100757.41
2023-04-14T02:06:14.147Z,100757.38
2023-04-14T02:09:20.260Z,100714.44
2023-04-14T02:12:26.473Z,100740.75
2023-04-14T02:15:33.156Z,100766.19
2023-04-14T02:18:39.675Z,100774.91
2023-04-14T02:21:44.844Z,100771.44
2023-04-14T02:24:49.361Z,100741.59
2023-04-14T02:28:04.790Z,100751.25
2023-04-14T02:31:13.337Z,100773.13
2023-04-14T02:34:25.726Z,100741.47
2023-04-14T02:37:44.635Z,100723.09
2023-04-14T02:40:54.884Z,100724.91
2023-04-14T02:44:12.208Z,100732.84
2023-04-14T02:47:25.238Z,100751.28
2023-04-14T02:50:34.652Z,100742.50
2023-04-14T02:53:50.201Z,100745.13
2023-04-14T02:57:12.068Z,100739.59
2023-04-14T03:00:20.546Z,100750.13
2023-04-14T03:03:29.452Z,100719.53
2023-04-14T03:06:39.898Z,100709.13
2023-04-14T03:09:46.544Z,100734.47
2023-04-14T03:12:53.374Z,100741.44
2023-04-14T03:16:00.596Z,100736.25
2023-04-14T03:19:08.973Z,100740.69
2023-04-14T03:22:19.319Z,100747.69
2023-04-14T03:25:28.508Z,100751.25
2023-04-14T03:28:37.544Z,100753.91
2023-04-14T03:31:46.638Z,100738.09
2023-04-14T03:34:59.082Z,100721.34
2023-04-14T03:38:09.925Z,100724.69
2023-04-14T03:41:15.825Z,100740.19
2023-04-14T03:44:22.706Z,100750.81
2023-04-14T03:47:32.058Z,100744.19
2023-04-14T03:50:44.552Z,100692.41
2023-04-14T03:53:49.042Z,100744.25
2023-04-14T03:56:57.661Z,100746.00
2023-04-14T04:00:06.251Z,100749.53
2023-04-14T04:03:18.559Z,100753.00
2023-04-14T04:06:23.825Z,100736.31
2023-04-14T04:09:30.701Z,100752.16
2023-04-14T04:12:39.051Z,100753.03
2023-04-14T04:15:46.773Z,100746.84
2023-04-14T04:18:53.255Z,100720.56
2023-04-14T04:22:05.912Z,100738.94
2023-04-14T04:25:15.255Z,100756.16
2023-04-14T04:28:28.640Z,100749.72
2023-04-14T04:31:35.179Z,100744.88
2023-04-14T04:34:40.768Z,100742.38
2023-04-14T04:37:45.640Z,100720.94
2023-04-14T04:40:50.741Z,100743.63
2023-04-14T04:44:00.293Z,100737.31
2023-04-14T04:47:05.009Z,100745.59
2023-04-14T04:50:09.676Z,100753.69
2023-04-14T04:53:14.637Z,100718.56
2023-04-14T04:56:19.332Z,100711.47
2023-04-14T04:59:23.692Z,100730.00
2023-04-14T05:02:28.331Z,100745.72
2023-04-14T05:05:37.305Z,100734.91
2023-04-14T05:08:41.720Z,100741.03
2023-04-14T05:11:46.326Z,100713.66
2023-04-14T05:14:51.215Z,100719.59
2023-04-14T05:17:55.219Z,100742.03
2023-04-14T05:21:14.174Z,100743.09
2023-04-14T05:24:18.620Z,100740.13
2023-04-14T05:27:22.980Z,100690.09
2023-04-14T05:30:27.452Z,100692.41
2023-04-14T05:33:32.021Z,100737.22
2023-04-14T05:36:36.066Z,100740.94
2023-04-14T05:39:41.809Z,100742.53
2023-04-14T05:42:45.742Z,100744.91
2023-04-14T05:45:49.673Z,100743.91
2023-04-14T05:48:53.893Z,100748.00
2023-04-14T05:51:58.024Z,100744.34
2023-04-14T05:55:02.368Z,100741.56
2023-04-14T05:58:06.847Z,100707.56
2023-04-14T06:01:11.007Z,100732.81
2023-04-14T06:04:16.564Z,100753.78
2023-04-14T06:07:21.262Z,100761.78
2023-04-14T06:10:25.318Z,100759.06
2023-04-14T06:13:31.992Z,100742.13
2023-04-14T06:16:38.122Z,100760.13
2023-04-14T06:19:54.417Z,100767.25
2023-04-14T06:23:01.704Z,100741.41
2023-04-14T06:26:06.446Z,100743.03
2023-04-14T06:29:10.453Z,100746.28
2023-04-14T06:32:14.534Z,100757.69
2023-04-14T06:35:31.975Z,100747.34
2023-04-14T06:38:37.710Z,100743.31
2023-04-14T06:41:41.660Z,100706.44
2023-04-14T06:44:49.369Z,100752.03
2023-04-14T06:47:53.221Z,100736.94
2023-04-14T06:50:58.186Z,100745.59
2023-04-14T06:54:04.635Z,100741.63
2023-04-14T06:57:09.160Z,100718.44
2023-04-14T07:00:14.492Z,100770.38
2023-04-14T07:03:18.672Z,100759.19
2023-04-14T07:06:23.022Z,100753.88
2023-04-14T07:09:27.234Z,100753.00
2023-04-14T07:12:31.721Z,100764.44
2023-04-14T07:15:35.983Z,100727.44
2023-04-14T07:18:40.366Z,100761.28
2023-04-14T07:21:46.837Z,100770.81
2023-04-14T07:24:51.727Z,100767.03
2023-04-14T07:28:03.172Z,100758.34
2023-04-14T07:31:11.261Z,100768.84
2023-04-14T07:34:15.543Z,100762.00
2023-04-14T07:37:20.680Z,100756.91
2023-04-14T07:40:25.056Z,100761.28
2023-04-14T07:43:30.649Z,100766.31
2023-04-14T07:46:35.177Z,100763.75
2023-04-14T07:49:39.771Z,100757.66
2023-04-14T07:52:43.638Z,100776.22
2023-04-14T07:55:48.097Z,100768.22
2023-04-14T07:58:52.379Z,100719.28
2023-04-14T08:01:56.565Z,100752.56
2023-04-14T08:05:00.550Z,100777.03
2023-04-14T08:08:06.679Z,100768.25
2023-04-14T08:11:11.305Z,100779.69
2023-04-14T08:14:16.340Z,100770.88
2023-04-14T08:17:21.653Z,100748.94
2023-04-14T08:20:25.877Z,100785.69
2023-04-14T08:23:29.853Z,100730.56
2023-04-14T08:27:12.181Z,100652.78
2023-04-14T08:30:40.769Z,100675.59
2023-04-14T08:34:03.406Z,100783.44
2023-04-14T08:37:10.081Z,100781.72
2023-04-14T08:40:17.763Z,100768.63
2023-04-14T08:43:22.787Z,100798.50
2023-04-14T08:46:29.145Z,100790.63
2023-04-14T08:49:43.539Z,100793.28
2023-04-14T08:52:50.360Z,100790.59
2023-04-14T08:55:58.067Z,100797.63
2023-04-14T08:59:03.372Z,100802.91
2023-04-14T09:02:08.015Z,100799.34
2023-04-14T09:05:13.867Z,100800.19
2023-04-14T09:08:18.184Z,100797.59
2023-04-14T09:11:23.378Z,100787.09
2023-04-14T09:14:28.450Z,100803.78
2023-04-14T09:17:37.434Z,100809.03
2023-04-14T09:20:42.409Z,100763.44
2023-04-14T09:23:47.148Z,100811.69
2023-04-14T09:26:53.894Z,100816.09
2023-04-14T09:30:00.653Z,100787.13
2023-04-14T09:33:08.397Z,100796.00
2023-04-14T09:36:21.187Z,100813.53
2023-04-14T09:39:25.150Z,100795.97
2023-04-14T09:42:43.682Z,100826.72
2023-04-14T09:45:48.461Z,100786.38
2023-04-14T09:48:57.162Z,100828.50
2023-04-14T09:52:11.274Z,100796.00
2023-04-14T09:55:17.798Z,100803.91
2023-04-14T09:58:27.321Z,100817.97
2023-04-14T10:01:35.143Z,100824.97
2023-04-14T10:04:40.021Z,100820.59
2023-04-14T10:07:45.559Z,100829.34
2023-04-14T10:10:49.867Z,100793.31
2023-04-14T10:13:59.300Z,100851.25
2023-04-14T10:17:03.724Z,100826.63
2023-04-14T10:20:08.747Z,100853.81
2023-04-14T10:23:13.534Z,100854.72
2023-04-14T10:26:18.732Z,100838.81
2023-04-14T10:29:23.962Z,100859.09
2023-04-14T10:32:32.858Z,100873.94
2023-04-14T10:35:47.936Z,100881.78
2023-04-14T10:39:04.255Z,100869.44
2023-04-14T10:42:09.208Z,100871.09
2023-04-14T10:45:13.557Z,100876.38
2023-04-14T10:48:18.440Z,100866.84
2023-04-14T10:51:36.944Z,100880.88
2023-04-14T10:55:02.122Z,100892.19
2023-04-14T10:58:07.728Z,100876.31
2023-04-14T11:01:33.163Z,100873.75
2023-04-14T11:05:19.141Z,100893.94
2023-04-14T11:08:28.049Z,100875.28
2023-04-14T11:11:32.501Z,100855.69
2023-04-14T11:14:37.483Z,100901.38
2023-04-14T11:17:47.555Z,100897.78
2023-04-14T11:20:54.060Z,100892.56
2023-04-14T11:24:00.267Z,100898.22
2023-04-14T11:27:05.594Z,100912.28
2023-04-14T11:30:20.747Z,100920.16
2023-04-14T11:33:32.555Z,100906.88
2023-04-14T11:36:40.234Z,100919.84
2023-04-14T11:39:45.251Z,100920.97
2023-04-14T11:42:55.356Z,100924.31
2023-04-14T11:46:01.744Z,100923.53
2023-04-14T11:49:06.831Z,100930.50
2023-04-14T11:52:11.388Z,100928.75
2023-04-14T11:55:18.508Z,100929.38
2023-04-14T11:58:25.438Z,100903.03
2023-04-14T12:01:30.937Z,100931.06
2023-04-14T12:04:35.901Z,100910.09
2023-04-14T12:07:40.872Z,100920.69
2023-04-14T12:10:47.689Z,100924.78
2023-04-14T12:13:53.700Z,100916.88
2023-04-14T12:16:59.530Z,100917.72
2023-04-14T12:20:06.307Z,100924.41
2023-04-14T12:23:10.855Z,100918.09
2023-04-14T12:26:15.790Z,100913.84
2023-04-14T12:29:23.748Z,100926.66
2023-04-14T12:32:31.553Z,100918.75
2023-04-14T12:35:36.115Z,100916.00
2023-04-14T12:38:40.650Z,100919.16
2023-04-14T12:41:44.700Z,100919.94
2023-04-14T12:45:03.103Z,100915.31
2023-04-14T12:48:07.864Z,100924.00
2023-04-14T12:51:22.360Z,100918.69
2023-04-14T12:54:27.096Z,100892.34
2023-04-14T12:57:33.497Z,100847.50
2023-04-14T13:00:38.145Z,100908.09
2023-04-14T13:03:51.439Z,100909.63
2023-04-14T13:06:56.371Z,100913.75
2023-04-14T13:10:00.943Z,100917.00
2023-04-14T13:13:10.599Z,100906.53
2023-04-14T13:16:22.948Z,100910.09
2023-04-14T13:19:31.193Z,100890.44
2023-04-14T13:22:36.229Z,100894.75
2023-04-14T13:25:40.703Z,100887.75
2023-04-14T13:28:44.653Z,100881.06
2023-04-14T13:31:49.045Z,100895.06
2023-04-14T13:34:53.621Z,100894.31
2023-04-14T13:37:59.969Z,100895.31
2023-04-14T13:41:07.381Z,100871.06
2023-04-14T13:44:16.357Z,100891.16
2023-04-14T13:47:29.422Z,100889.34
2023-04-14T13:50:40.421Z,100893.22
2023-04-14T13:53:51.573Z,100891.38
2023-04-14T13:57:02.864Z,100889.22
2023-04-14T14:00:11.282Z,100851.38
2023-04-14T14:03:18.253Z,100881.84
2023-04-14T14:06:24.696Z,100879.56
2023-04-14T14:09:30.432Z,100887.47
2023-04-14T14:12:34.943Z,100882.88
2023-04-14T14:15:40.127Z,100863.00
2023-04-14T14:18:45.966Z,100892.28
2023-04-14T14:21:49.543Z,100884.13
2023-04-14T14:25:06.899Z,100879.69
2023-04-14T14:28:19.979Z,100874.56
2023-04-14T14:31:24.722Z,100877.13
2023-04-14T14:34:29.218Z,100869.34
2023-04-14T14:37:33.710Z,100852.72
2023-04-14T14:40:38.182Z,100870.97
2023-04-14T14:43:42.616Z,100862.31
2023-04-14T14:46:48.050Z,100860.13
2023-04-14T14:49:59.586Z,100856.00
2023-04-14T14:53:04.863Z,100809.38
2023-04-14T14:56:09.384Z,100848.22
2023-04-14T14:59:13.766Z,100850.25
2023-04-14T15:02:18.492Z,100850.38
2023-04-14T15:05:23.052Z,100847.59
2023-04-14T15:08:27.422Z,100816.44
2023-04-14T15:11:31.695Z,100840.09
2023-04-14T15:14:36.478Z,100854.97
2023-04-14T15:17:41.108Z,100852.16
2023-04-14T15:20:45.680Z,100852.53
2023-04-14T15:23:50.585Z,100855.09
2023-04-14T15:26:54.962Z,100846.28
2023-04-14T15:29:59.475Z,100802.88
2023-04-14T15:33:04.047Z,100844.34
2023-04-14T15:36:08.746Z,100833.16
2023-04-14T15:39:13.465Z,100832.41
2023-04-14T15:42:17.923Z,100804.63
2023-04-14T15:45:22.505Z,100782.59
2023-04-14T15:48:27.307Z,100800.81
2023-04-14T15:51:31.741Z,100833.41
2023-04-14T15:54:36.680Z,100841.88
2023-04-14T15:57:41.594Z,100838.56
2023-04-14T16:00:46.688Z,100842.56
2023-04-14T16:03:52.616Z,100813.88
2023-04-14T16:06:57.247Z,100849.25
2023-04-14T16:10:02.249Z,100827.06
2023-04-14T16:13:07.180Z,100840.75
2023-04-14T16:16:13.757Z,100842.59
2023-04-14T16:19:18.577Z,100828.47
2023-04-14T16:22:23.886Z,100772.59
2023-04-14T16:25:28.692Z,100839.38
2023-04-14T16:28:33.174Z,100818.53
2023-04-14T16:31:37.965Z,100846.31
2023-04-14T16:34:42.122Z,100845.13
2023-04-14T16:37:46.402Z,100838.00
2023-04-14T16:40:58.308Z,100838.16
2023-04-14T16:44:02.830Z,100832.22
2023-04-14T16:47:07.658Z,100830.22
2023-04-14T16:50:12.554Z,100837.94
2023-04-14T16:53:17.620Z,100821.91
2023-04-14T16:56:22.292Z,100832.22
2023-04-14T16:59:26.910Z,100834.22
2023-04-14T17:02:31.521Z,100831.59
2023-04-14T17:05:36.146Z,100836.72
2023-04-14T17:08:40.812Z,100839.63
2023-04-14T17:11:45.446Z,100840.53
2023-04-14T17:14:49.817Z,100834.78
2023-04-14T17:17:54.279Z,100835.59
2023-04-14T17:20:59.272Z,100821.59
2023-04-14T17:24:05.564Z,100846.72
2023-04-14T17:27:10.009Z,100839.81
2023-04-14T17:30:14.900Z,100783.47
2023-04-14T17:33:20.733Z,100836.22
2023-04-14T17:36:25.054Z,100822.00
2023-04-14T17:39:29.700Z,100828.28
2023-04-14T17:42:35.111Z,100822.06
2023-04-14T17:45:43.031Z,100821.00
2023-04-14T17:48:47.742Z,100818.47
2023-04-14T17:51:52.428Z,100817.47
2023-04-14T17:54:56.774Z,100794.97
2023-04-14T17:58:01.750Z,100815.19
2023-04-14T18:01:06.594Z,100811.91
2023-04-14T18:04:11.157Z,100767.75
2023-04-14T18:07:15.630Z,100819.78
2023-04-14T18:10:20.416Z,100812.81
2023-04-14T18:13:24.704Z,100813.13
2023-04-14T18:16:29.433Z,100811.75
2023-04-14T18:19:36.623Z,100813.06
2023-04-14T18:22:41.189Z,100789.94
2023-04-14T18:28:53.191Z,100809.06
2023-04-14T18:31:59.157Z,100804.91
2023-04-14T18:35:03.050Z,100814.78
2023-04-14T18:38:08.328Z,100810.31
2023-04-14T18:41:13.154Z,100813.34
2023-04-14T18:44:17.914Z,100807.28
2023-04-14T18:47:23.102Z,100753.72
2023-04-14T18:50:28.073Z,100813.00
2023-04-14T18:53:32.733Z,100805.00
2023-04-14T18:56:37.713Z,100804.94
2023-04-14T18:59:42.789Z,100808.47
2023-04-14T19:02:47.764Z,100794.63
2023-04-14T19:05:52.846Z,100796.09
2023-04-14T19:09:02.022Z,100800.88
2023-04-14T19:12:12.815Z,100777.59
2023-04-14T19:15:29.607Z,100791.03
2023-04-14T19:18:33.944Z,100795.19
2023-04-14T19:21:38.494Z,100782.16
2023-04-14T19:24:43.095Z,100789.13
2023-04-14T19:27:47.663Z,100771.50
2023-04-14T19:30:51.823Z,100765.97
2023-04-14T19:33:57.121Z,100769.69
2023-04-14T19:37:04.932Z,100779.41
2023-04-14T19:40:11.814Z,100778.09
2023-04-14T19:43:19.643Z,100752.81
2023-04-14T19:46:24.300Z,100764.09
2023-04-14T19:49:29.154Z,100777.94
2023-04-14T19:52:33.691Z,100772.59
2023-04-14T19:55:38.108Z,100780.00
2023-04-14T19:58:42.581Z,100768.44
2023-04-14T20:01:48.232Z,100771.88
2023-04-14T20:04:52.332Z,100780.84
2023-04-14T20:07:56.985Z,100746.03
2023-04-14T20:11:01.312Z,100733.69
2023-04-14T20:14:06.163Z,100770.47
2023-04-14T20:17:10.691Z,100788.09
2023-04-14T20:20:17.283Z,100779.97
2023-04-14T20:23:22.570Z,100778.91
2023-04-14T20:26:27.048Z,100759.78
2023-04-14T20:29:31.495Z,100747.22
2023-04-14T20:32:36.466Z,100741.38
2023-04-14T20:35:41.342Z,100779.47
2023-04-14T20:38:45.770Z,100779.88
2023-04-14T20:41:50.275Z,100777.72
2023-04-14T20:44:54.514Z,100779.03
2023-04-14T20:47:59.748Z,100717.31
2023-04-14T20:51:04.397Z,100778.44
2023-04-14T20:54:08.595Z,100777.28
2023-04-14T20:57:13.132Z,100775.34
2023-04-14T21:00:19.602Z,100761.34
2023-04-14T21:03:24.651Z,100756.25
2023-04-14T21:06:30.068Z,100775.19
2023-04-14T21:09:35.887Z,100769.94
2023-04-14T21:13:54.281Z,100771.81
2023-04-14T21:16:04.972Z,100751.91
2023-04-14T21:19:14.293Z,100767.84
2023-04-14T21:22:18.764Z,100765.03
2023-04-14T21:25:24.085Z,100737.91
2023-04-14T21:28:28.699Z,100762.22
2023-04-14T21:31:33.905Z,100761.59
2023-04-14T21:34:38.754Z,100768.78
2023-04-14T21:37:43.615Z,100750.31
2023-04-14T21:40:47.695Z,100772.16
2023-04-14T21:43:52.366Z,100766.53
2023-04-14T21:46:57.738Z,100762.63
2023-04-14T21:50:02.182Z,100773.50
2023-04-14T21:53:07.403Z,100756.16
2023-04-14T21:56:13.771Z,100766.38
2023-04-14T21:59:18.519Z,100769.84
2023-04-14T22:02:23.654Z,100771.19
2023-04-14T22:05:28.274Z,100745.84
2023-04-14T22:08:32.821Z,100729.66
2023-04-14T22:11:38.479Z,100735.16
2023-04-14T22:14:46.490Z,100758.63
2023-04-14T22:17:54.387Z,100746.59
2023-04-14T22:20:59.525Z,100744.56
2023-04-14T22:24:03.967Z,100752.75
2023-04-14T22:27:10.715Z,100747.09
2023-04-14T22:30:15.115Z,100755.56
2023-04-14T22:33:19.664Z,100725.13
2023-04-14T22:36:24.133Z,100752.22
2023-04-14T22:39:28.877Z,100743.34
2023-04-14T22:42:32.728Z,100746.78
2023-04-14T22:45:38.680Z,100733.53
2023-04-14T22:48:43.338Z,100739.19
2023-04-14T22:51:47.999Z,100583.97
2023-04-14T22:54:52.538Z,100748.13
2023-04-14T22:57:56.703Z,100749.13
2023-04-14T23:01:09.125Z,100756.88
2023-04-14T23:04:20.008Z,100741.28
2023-04-14T23:07:24.310Z,100748.00
2023-04-14T23:10:29.360Z,100748.22
2023-04-14T23:13:34.328Z,100748.09
2023-04-14T23:16:38.937Z,100696.97
2023-04-14T23:19:43.433Z,100739.53
2023-04-14T23:22:47.540Z,100742.56
2023-04-14T23:25:52.200Z,100726.06
2023-04-14T23:28:56.749Z,100732.03
2023-04-14T23:32:00.785Z,100731.16
2023-04-14T23:35:05.167Z,100734.50
2023-04-14T23:38:09.863Z,100724.94
2023-04-14T23:41:14.318Z,100689.75
2023-04-14T23:44:18.161Z,100740.16
2023-04-14T23:47:23.643Z,100729.78
2023-04-14T23:51:01.178Z,100737.81
2023-04-14T23:53:52.942Z,100733.97
2023-04-14T23:56:57.648Z,100689.59
